sensor_id;sensor_type;location;lat;lon;timestamp;temperature;humidity
14079;DHT22;7115;50.150;8.568;2023-04-07T00:00:29;8.30;99.90
14079;DHT22;7115;50.150;8.568;2023-04-07T00:02:56;8.30;99.90
14079;DHT22;7115;50.150;8.568;2023-04-07T00:05:25;8.30;99.90
14079;DHT22;7115;50.150;8.568;2023-04-07T00:07:52;8.30;99.90
14079;DHT22;7115;50.150;8.568;2023-04-07T00:10:23;8.30;99.90
14079;DHT22;7115;50.150;8.568;2023-04-07T00:12:50;8.30;99.90
14079;DHT22;7115;50.150;8.568;2023-04-07T00:15:17;8.30;99.90
14079;DHT22;7115;50.150;8.568;2023-04-07T00:17:44;8.30;99.90
14079;DHT22;7115;50.150;8.568;2023-04-07T00:20:11;8.40;99.90
14079;DHT22;7115;50.150;8.568;2023-04-07T00:22:39;8.40;99.90
14079;DHT22;7115;50.150;8.568;2023-04-07T00:25:07;8.40;99.90
14079;DHT22;7115;50.150;8.568;2023-04-07T00:27:35;8.50;99.90
14079;DHT22;7115;50.150;8.568;2023-04-07T00:30:02;8.50;99.90
14079;DHT22;7115;50.150;8.568;2023-04-07T00:32:29;8.40;99.90
14079;DHT22;7115;50.150;8.568;2023-04-07T00:34:56;8.30;99.90
14079;DHT22;7115;50.150;8.568;2023-04-07T00:37:27;8.30;99.90
14079;DHT22;7115;50.150;8.568;2023-04-07T00:39:56;8.30;99.90
14079;DHT22;7115;50.150;8.568;2023-04-07T00:42:24;8.20;99.90
14079;DHT22;7115;50.150;8.568;2023-04-07T00:44:51;8.20;99.90
14079;DHT22;7115;50.150;8.568;2023-04-07T00:47:19;8.20;99.90
14079;DHT22;7115;50.150;8.568;2023-04-07T00:49:46;8.20;99.90
14079;DHT22;7115;50.150;8.568;2023-04-07T00:52:13;8.20;99.90
14079;DHT22;7115;50.150;8.568;2023-04-07T00:54:41;8.20;99.90
14079;DHT22;7115;50.150;8.568;2023-04-07T00:57:09;8.20;99.90
14079;DHT22;7115;50.150;8.568;2023-04-07T00:59:36;8.30;99.90
14079;DHT22;7115;50.150;8.568;2023-04-07T01:02:07;8.30;99.90
14079;DHT22;7115;50.150;8.568;2023-04-07T01:04:42;8.20;99.90
14079;DHT22;7115;50.150;8.568;2023-04-07T01:07:14;8.20;99.90
14079;DHT22;7115;50.150;8.568;2023-04-07T01:09:46;8.20;99.90
14079;DHT22;7115;50.150;8.568;2023-04-07T01:12:22;8.20;99.90
14079;DHT22;7115;50.150;8.568;2023-04-07T01:14:54;8.20;99.90
14079;DHT22;7115;50.150;8.568;2023-04-07T01:17:24;8.20;99.90
14079;DHT22;7115;50.150;8.568;2023-04-07T01:19:56;8.20;99.90
14079;DHT22;7115;50.150;8.568;2023-04-07T01:22:27;8.30;99.90
14079;DHT22;7115;50.150;8.568;2023-04-07T01:25:25;8.30;99.90
14079;DHT22;7115;50.150;8.568;2023-04-07T01:28:09;8.30;99.90
14079;DHT22;7115;50.150;8.568;2023-04-07T01:30:42;8.40;99.90
14079;DHT22;7115;50.150;8.568;2023-04-07T01:33:10;8.40;99.90
14079;DHT22;7115;50.150;8.568;2023-04-07T01:35:41;8.40;99.90
14079;DHT22;7115;50.150;8.568;2023-04-07T01:38:10;8.50;99.90
14079;DHT22;7115;50.150;8.568;2023-04-07T01:40:38;8.50;99.90
14079;DHT22;7115;50.150;8.568;2023-04-07T01:43:07;8.50;99.90
14079;DHT22;7115;50.150;8.568;2023-04-07T01:45:35;8.50;99.90
14079;DHT22;7115;50.150;8.568;2023-04-07T01:48:06;8.50;99.90
14079;DHT22;7115;50.150;8.568;2023-04-07T01:50:34;8.60;99.90
14079;DHT22;7115;50.150;8.568;2023-04-07T01:53:02;8.60;99.90
14079;DHT22;7115;50.150;8.568;2023-04-07T01:55:31;8.60;99.90
14079;DHT22;7115;50.150;8.568;2023-04-07T01:57:58;8.60;99.90
14079;DHT22;7115;50.150;8.568;2023-04-07T02:00:29;8.60;99.90
14079;DHT22;7115;50.150;8.568;2023-04-07T02:03:03;8.70;99.90
14079;DHT22;7115;50.150;8.568;2023-04-07T02:05:34;8.70;99.90
14079;DHT22;7115;50.150;8.568;2023-04-07T02:08:04;8.80;99.90
14079;DHT22;7115;50.150;8.568;2023-04-07T02:10:34;8.70;99.90
14079;DHT22;7115;50.150;8.568;2023-04-07T02:13:04;8.80;99.90
14079;DHT22;7115;50.150;8.568;2023-04-07T02:15:33;8.80;99.90
14079;DHT22;7115;50.150;8.568;2023-04-07T02:18:00;8.60;99.90
14079;DHT22;7115;50.150;8.568;2023-04-07T02:20:28;8.70;99.90
14079;DHT22;7115;50.150;8.568;2023-04-07T02:22:57;8.70;99.90
14079;DHT22;7115;50.150;8.568;2023-04-07T02:25:26;8.50;99.90
14079;DHT22;7115;50.150;8.568;2023-04-07T02:27:54;8.70;99.90
14079;DHT22;7115;50.150;8.568;2023-04-07T02:30:21;8.70;99.90
14079;DHT22;7115;50.150;8.568;2023-04-07T02:32:48;8.70;99.90
14079;DHT22;7115;50.150;8.568;2023-04-07T02:35:16;8.60;99.90
14079;DHT22;7115;50.150;8.568;2023-04-07T02:37:43;8.60;99.90
14079;DHT22;7115;50.150;8.568;2023-04-07T02:40:12;8.60;99.90
14079;DHT22;7115;50.150;8.568;2023-04-07T02:42:39;8.60;99.90
14079;DHT22;7115;50.150;8.568;2023-04-07T02:45:07;8.60;99.90
14079;DHT22;7115;50.150;8.568;2023-04-07T02:47:35;8.60;99.90
14079;DHT22;7115;50.150;8.568;2023-04-07T02:50:03;8.60;99.90
14079;DHT22;7115;50.150;8.568;2023-04-07T02:52:30;8.60;99.90
14079;DHT22;7115;50.150;8.568;2023-04-07T02:54:57;8.60;99.90
14079;DHT22;7115;50.150;8.568;2023-04-07T02:57:25;8.60;99.90
14079;DHT22;7115;50.150;8.568;2023-04-07T02:59:52;8.60;99.90
14079;DHT22;7115;50.150;8.568;2023-04-07T03:02:20;8.70;99.90
14079;DHT22;7115;50.150;8.568;2023-04-07T03:04:47;8.70;99.90
14079;DHT22;7115;50.150;8.568;2023-04-07T03:07:14;8.70;99.90
14079;DHT22;7115;50.150;8.568;2023-04-07T03:09:41;8.70;99.90
14079;DHT22;7115;50.150;8.568;2023-04-07T03:12:08;8.70;99.90
14079;DHT22;7115;50.150;8.568;2023-04-07T03:14:36;8.60;99.90
14079;DHT22;7115;50.150;8.568;2023-04-07T03:17:03;8.60;99.90
14079;DHT22;7115;50.150;8.568;2023-04-07T03:19:30;8.60;99.90
14079;DHT22;7115;50.150;8.568;2023-04-07T03:21:57;8.60;99.90
14079;DHT22;7115;50.150;8.568;2023-04-07T03:24:24;8.60;99.90
14079;DHT22;7115;50.150;8.568;2023-04-07T03:26:51;8.60;99.90
14079;DHT22;7115;50.150;8.568;2023-04-07T03:29:18;8.60;99.90
14079;DHT22;7115;50.150;8.568;2023-04-07T03:31:46;8.70;99.90
14079;DHT22;7115;50.150;8.568;2023-04-07T03:34:13;8.70;99.90
14079;DHT22;7115;50.150;8.568;2023-04-07T03:36:41;8.80;99.90
14079;DHT22;7115;50.150;8.568;2023-04-07T03:39:07;8.80;99.90
14079;DHT22;7115;50.150;8.568;2023-04-07T03:41:34;8.80;99.90
14079;DHT22;7115;50.150;8.568;2023-04-07T03:44:01;8.90;99.90
14079;DHT22;7115;50.150;8.568;2023-04-07T03:46:28;8.90;99.90
14079;DHT22;7115;50.150;8.568;2023-04-07T03:48:56;8.90;99.90
14079;DHT22;7115;50.150;8.568;2023-04-07T03:51:23;8.90;99.90
14079;DHT22;7115;50.150;8.568;2023-04-07T03:53:50;8.90;99.90
14079;DHT22;7115;50.150;8.568;2023-04-07T03:56:17;8.90;99.90
14079;DHT22;7115;50.150;8.568;2023-04-07T03:58:44;8.90;99.90
14079;DHT22;7115;50.150;8.568;2023-04-07T04:01:12;8.90;99.90
14079;DHT22;7115;50.150;8.568;2023-04-07T04:03:39;8.90;99.90
14079;DHT22;7115;50.150;8.568;2023-04-07T04:06:07;8.90;99.90
14079;DHT22;7115;50.150;8.568;2023-04-07T04:08:34;8.90;99.90
14079;DHT22;7115;50.150;8.568;2023-04-07T04:11:01;8.90;99.90
14079;DHT22;7115;50.150;8.568;2023-04-07T04:13:28;8.80;99.90
14079;DHT22;7115;50.150;8.568;2023-04-07T04:15:54;8.80;99.90
14079;DHT22;7115;50.150;8.568;2023-04-07T04:18:22;8.80;99.90
14079;DHT22;7115;50.150;8.568;2023-04-07T04:20:49;8.80;99.90
14079;DHT22;7115;50.150;8.568;2023-04-07T04:23:17;8.80;99.90
14079;DHT22;7115;50.150;8.568;2023-04-07T04:25:44;8.80;99.90
14079;DHT22;7115;50.150;8.568;2023-04-07T04:28:11;8.80;99.90
14079;DHT22;7115;50.150;8.568;2023-04-07T04:30:38;8.70;99.90
14079;DHT22;7115;50.150;8.568;2023-04-07T04:33:05;8.80;99.90
14079;DHT22;7115;50.150;8.568;2023-04-07T04:35:31;8.80;99.90
14079;DHT22;7115;50.150;8.568;2023-04-07T04:37:58;8.80;99.90
14079;DHT22;7115;50.150;8.568;2023-04-07T04:40:27;8.80;99.90
14079;DHT22;7115;50.150;8.568;2023-04-07T04:42:53;8.80;99.90
14079;DHT22;7115;50.150;8.568;2023-04-07T04:45:20;8.90;99.90
14079;DHT22;7115;50.150;8.568;2023-04-07T04:47:47;8.90;99.90
14079;DHT22;7115;50.150;8.568;2023-04-07T04:50:14;8.90;99.90
14079;DHT22;7115;50.150;8.568;2023-04-07T04:52:41;8.80;99.90
14079;DHT22;7115;50.150;8.568;2023-04-07T04:55:09;8.80;99.90
14079;DHT22;7115;50.150;8.568;2023-04-07T04:57:41;8.80;99.90
14079;DHT22;7115;50.150;8.568;2023-04-07T05:00:09;8.80;99.90
14079;DHT22;7115;50.150;8.568;2023-04-07T05:02:36;8.80;99.90
14079;DHT22;7115;50.150;8.568;2023-04-07T05:05:04;8.80;99.90
14079;DHT22;7115;50.150;8.568;2023-04-07T05:07:31;8.80;99.90
14079;DHT22;7115;50.150;8.568;2023-04-07T05:09:58;8.80;99.90
14079;DHT22;7115;50.150;8.568;2023-04-07T05:12:25;8.90;99.90
14079;DHT22;7115;50.150;8.568;2023-04-07T05:14:54;8.90;99.90
14079;DHT22;7115;50.150;8.568;2023-04-07T05:17:21;8.90;99.90
14079;DHT22;7115;50.150;8.568;2023-04-07T05:19:48;8.90;99.90
14079;DHT22;7115;50.150;8.568;2023-04-07T05:22:14;8.90;99.90
14079;DHT22;7115;50.150;8.568;2023-04-07T05:24:42;8.90;99.90
14079;DHT22;7115;50.150;8.568;2023-04-07T05:27:09;8.90;99.90
14079;DHT22;7115;50.150;8.568;2023-04-07T05:29:35;8.80;99.90
14079;DHT22;7115;50.150;8.568;2023-04-07T05:32:04;8.80;99.90
14079;DHT22;7115;50.150;8.568;2023-04-07T05:34:31;8.80;99.90
14079;DHT22;7115;50.150;8.568;2023-04-07T05:36:58;8.80;99.90
14079;DHT22;7115;50.150;8.568;2023-04-07T05:39:25;8.80;99.90
14079;DHT22;7115;50.150;8.568;2023-04-07T05:41:51;8.80;99.90
14079;DHT22;7115;50.150;8.568;2023-04-07T05:44:18;8.80;99.90
14079;DHT22;7115;50.150;8.568;2023-04-07T05:46:45;8.80;99.90
14079;DHT22;7115;50.150;8.568;2023-04-07T05:49:13;8.90;99.90
14079;DHT22;7115;50.150;8.568;2023-04-07T05:51:46;8.90;99.90
14079;DHT22;7115;50.150;8.568;2023-04-07T05:54:15;8.80;99.90
14079;DHT22;7115;50.150;8.568;2023-04-07T05:56:42;8.90;99.90
14079;DHT22;7115;50.150;8.568;2023-04-07T05:59:08;8.80;99.90
14079;DHT22;7115;50.150;8.568;2023-04-07T06:01:37;8.90;99.90
14079;DHT22;7115;50.150;8.568;2023-04-07T06:04:04;8.90;99.90
14079;DHT22;7115;50.150;8.568;2023-04-07T06:06:32;8.90;99.90
14079;DHT22;7115;50.150;8.568;2023-04-07T06:08:59;8.90;99.90
14079;DHT22;7115;50.150;8.568;2023-04-07T06:11:26;8.90;99.90
14079;DHT22;7115;50.150;8.568;2023-04-07T06:13:53;8.90;99.90
14079;DHT22;7115;50.150;8.568;2023-04-07T06:16:20;8.90;99.90
14079;DHT22;7115;50.150;8.568;2023-04-07T06:18:47;8.90;99.90
14079;DHT22;7115;50.150;8.568;2023-04-07T06:21:14;8.90;99.90
14079;DHT22;7115;50.150;8.568;2023-04-07T06:23:42;9.00;99.90
14079;DHT22;7115;50.150;8.568;2023-04-07T06:26:09;9.00;99.90
14079;DHT22;7115;50.150;8.568;2023-04-07T06:28:37;9.00;99.90
14079;DHT22;7115;50.150;8.568;2023-04-07T06:31:04;9.00;99.90
14079;DHT22;7115;50.150;8.568;2023-04-07T06:33:32;8.90;99.90
14079;DHT22;7115;50.150;8.568;2023-04-07T06:35:58;8.90;99.90
14079;DHT22;7115;50.150;8.568;2023-04-07T06:38:25;8.90;99.90
14079;DHT22;7115;50.150;8.568;2023-04-07T06:40:54;9.00;99.90
14079;DHT22;7115;50.150;8.568;2023-04-07T06:43:20;9.00;99.90
14079;DHT22;7115;50.150;8.568;2023-04-07T06:45:47;9.00;99.90
14079;DHT22;7115;50.150;8.568;2023-04-07T06:48:14;9.00;99.90
14079;DHT22;7115;50.150;8.568;2023-04-07T06:50:45;9.00;99.90
14079;DHT22;7115;50.150;8.568;2023-04-07T06:53:13;9.10;99.90
14079;DHT22;7115;50.150;8.568;2023-04-07T06:55:40;9.10;99.90
14079;DHT22;7115;50.150;8.568;2023-04-07T06:58:08;9.10;99.90
14079;DHT22;7115;50.150;8.568;2023-04-07T07:00:35;9.10;99.90
14079;DHT22;7115;50.150;8.568;2023-04-07T07:03:02;9.10;99.90
14079;DHT22;7115;50.150;8.568;2023-04-07T07:05:30;9.10;99.90
14079;DHT22;7115;50.150;8.568;2023-04-07T07:07:57;9.00;99.90
14079;DHT22;7115;50.150;8.568;2023-04-07T07:10:23;8.90;99.90
14079;DHT22;7115;50.150;8.568;2023-04-07T07:12:51;8.90;99.90
14079;DHT22;7115;50.150;8.568;2023-04-07T07:15:19;8.80;99.90
14079;DHT22;7115;50.150;8.568;2023-04-07T07:17:46;8.90;99.90
14079;DHT22;7115;50.150;8.568;2023-04-07T07:20:13;8.90;99.90
14079;DHT22;7115;50.150;8.568;2023-04-07T07:22:40;8.90;99.90
14079;DHT22;7115;50.150;8.568;2023-04-07T07:25:07;9.00;99.90
14079;DHT22;7115;50.150;8.568;2023-04-07T07:27:34;9.00;99.90
14079;DHT22;7115;50.150;8.568;2023-04-07T07:30:01;9.10;99.90
14079;DHT22;7115;50.150;8.568;2023-04-07T07:32:29;9.10;99.90
14079;DHT22;7115;50.150;8.568;2023-04-07T07:34:56;9.10;99.90
14079;DHT22;7115;50.150;8.568;2023-04-07T07:37:23;9.10;99.90
14079;DHT22;7115;50.150;8.568;2023-04-07T07:39:50;9.10;99.90
14079;DHT22;7115;50.150;8.568;2023-04-07T07:42:17;9.10;99.90
14079;DHT22;7115;50.150;8.568;2023-04-07T07:44:44;9.20;99.90
14079;DHT22;7115;50.150;8.568;2023-04-07T07:47:11;9.10;99.90
14079;DHT22;7115;50.150;8.568;2023-04-07T07:49:40;9.10;99.90
14079;DHT22;7115;50.150;8.568;2023-04-07T07:52:07;9.10;99.90
14079;DHT22;7115;50.150;8.568;2023-04-07T07:54:36;9.20;99.90
14079;DHT22;7115;50.150;8.568;2023-04-07T07:57:02;9.20;99.90
14079;DHT22;7115;50.150;8.568;2023-04-07T07:59:30;9.20;99.90
14079;DHT22;7115;50.150;8.568;2023-04-07T08:01:57;9.20;99.90
14079;DHT22;7115;50.150;8.568;2023-04-07T08:04:24;9.20;99.90
14079;DHT22;7115;50.150;8.568;2023-04-07T08:06:53;9.10;99.90
14079;DHT22;7115;50.150;8.568;2023-04-07T08:09:20;9.10;99.90
14079;DHT22;7115;50.150;8.568;2023-04-07T08:11:47;9.20;99.90
14079;DHT22;7115;50.150;8.568;2023-04-07T08:14:15;9.20;99.90
14079;DHT22;7115;50.150;8.568;2023-04-07T08:16:42;9.20;99.90
14079;DHT22;7115;50.150;8.568;2023-04-07T08:19:09;9.20;99.90
14079;DHT22;7115;50.150;8.568;2023-04-07T08:21:36;9.30;99.90
14079;DHT22;7115;50.150;8.568;2023-04-07T08:24:05;9.30;99.90
14079;DHT22;7115;50.150;8.568;2023-04-07T08:26:32;9.30;99.90
14079;DHT22;7115;50.150;8.568;2023-04-07T08:28:59;9.30;99.90
14079;DHT22;7115;50.150;8.568;2023-04-07T08:31:26;9.30;99.90
14079;DHT22;7115;50.150;8.568;2023-04-07T08:33:54;9.40;99.90
14079;DHT22;7115;50.150;8.568;2023-04-07T08:36:24;9.40;99.90
14079;DHT22;7115;50.150;8.568;2023-04-07T08:38:51;9.40;99.90
14079;DHT22;7115;50.150;8.568;2023-04-07T08:41:23;9.40;99.90
14079;DHT22;7115;50.150;8.568;2023-04-07T08:43:51;9.40;99.90
14079;DHT22;7115;50.150;8.568;2023-04-07T08:46:21;9.50;99.90
14079;DHT22;7115;50.150;8.568;2023-04-07T08:48:51;9.50;99.90
14079;DHT22;7115;50.150;8.568;2023-04-07T08:51:26;9.50;99.90
14079;DHT22;7115;50.150;8.568;2023-04-07T08:53:53;9.50;99.90
14079;DHT22;7115;50.150;8.568;2023-04-07T08:56:25;9.50;99.90
14079;DHT22;7115;50.150;8.568;2023-04-07T08:58:52;9.50;99.90
14079;DHT22;7115;50.150;8.568;2023-04-07T09:01:20;9.50;99.90
14079;DHT22;7115;50.150;8.568;2023-04-07T09:03:48;9.50;99.90
14079;DHT22;7115;50.150;8.568;2023-04-07T09:06:16;9.60;99.90
14079;DHT22;7115;50.150;8.568;2023-04-07T09:08:43;9.60;99.90
14079;DHT22;7115;50.150;8.568;2023-04-07T09:11:10;9.60;99.90
14079;DHT22;7115;50.150;8.568;2023-04-07T09:13:39;9.60;99.90
14079;DHT22;7115;50.150;8.568;2023-04-07T09:16:06;9.60;99.90
14079;DHT22;7115;50.150;8.568;2023-04-07T09:18:33;9.50;99.90
14079;DHT22;7115;50.150;8.568;2023-04-07T09:21:01;9.50;99.90
14079;DHT22;7115;50.150;8.568;2023-04-07T09:23:30;9.60;99.90
14079;DHT22;7115;50.150;8.568;2023-04-07T09:25:58;9.60;99.90
14079;DHT22;7115;50.150;8.568;2023-04-07T09:28:42;9.70;99.90
14079;DHT22;7115;50.150;8.568;2023-04-07T09:31:09;9.70;99.90
14079;DHT22;7115;50.150;8.568;2023-04-07T09:33:37;9.70;99.90
14079;DHT22;7115;50.150;8.568;2023-04-07T09:36:04;9.70;99.90
14079;DHT22;7115;50.150;8.568;2023-04-07T09:38:33;9.70;99.90
14079;DHT22;7115;50.150;8.568;2023-04-07T09:41:08;9.70;99.90
14079;DHT22;7115;50.150;8.568;2023-04-07T09:43:36;9.80;99.90
14079;DHT22;7115;50.150;8.568;2023-04-07T09:46:09;9.80;99.90
14079;DHT22;7115;50.150;8.568;2023-04-07T09:48:37;9.80;99.90
14079;DHT22;7115;50.150;8.568;2023-04-07T09:51:06;9.90;99.90
14079;DHT22;7115;50.150;8.568;2023-04-07T09:53:45;9.90;99.90
14079;DHT22;7115;50.150;8.568;2023-04-07T09:56:14;10.00;99.90
14079;DHT22;7115;50.150;8.568;2023-04-07T09:58:43;10.00;99.90
14079;DHT22;7115;50.150;8.568;2023-04-07T10:01:13;10.10;99.90
14079;DHT22;7115;50.150;8.568;2023-04-07T10:03:42;10.20;99.90
14079;DHT22;7115;50.150;8.568;2023-04-07T10:06:10;10.30;99.90
14079;DHT22;7115;50.150;8.568;2023-04-07T10:08:39;10.30;99.90
14079;DHT22;7115;50.150;8.568;2023-04-07T10:11:08;10.40;99.90
14079;DHT22;7115;50.150;8.568;2023-04-07T10:13:36;10.40;99.90
14079;DHT22;7115;50.150;8.568;2023-04-07T10:16:05;10.50;99.90
14079;DHT22;7115;50.150;8.568;2023-04-07T10:18:35;10.50;99.90
14079;DHT22;7115;50.150;8.568;2023-04-07T10:21:04;10.50;99.90
14079;DHT22;7115;50.150;8.568;2023-04-07T10:23:50;10.60;99.90
14079;DHT22;7115;50.150;8.568;2023-04-07T10:26:22;10.60;99.90
14079;DHT22;7115;50.150;8.568;2023-04-07T10:28:52;10.60;99.90
14079;DHT22;7115;50.150;8.568;2023-04-07T10:31:22;10.60;99.90
14079;DHT22;7115;50.150;8.568;2023-04-07T10:33:51;10.60;99.90
14079;DHT22;7115;50.150;8.568;2023-04-07T10:36:19;10.70;99.90
14079;DHT22;7115;50.150;8.568;2023-04-07T10:39:20;10.60;99.90
14079;DHT22;7115;50.150;8.568;2023-04-07T10:41:47;10.60;99.90
14079;DHT22;7115;50.150;8.568;2023-04-07T10:44:45;10.60;99.90
14079;DHT22;7115;50.150;8.568;2023-04-07T10:47:12;10.60;99.90
14079;DHT22;7115;50.150;8.568;2023-04-07T10:50:19;10.60;99.90
14079;DHT22;7115;50.150;8.568;2023-04-07T10:52:47;10.70;99.90
14079;DHT22;7115;50.150;8.568;2023-04-07T10:55:31;10.70;99.90
14079;DHT22;7115;50.150;8.568;2023-04-07T10:58:29;10.70;99.90
14079;DHT22;7115;50.150;8.568;2023-04-07T11:01:18;10.60;99.90
14079;DHT22;7115;50.150;8.568;2023-04-07T11:03:55;10.60;99.90
14079;DHT22;7115;50.150;8.568;2023-04-07T11:06:23;10.60;99.90
14079;DHT22;7115;50.150;8.568;2023-04-07T11:08:52;10.60;99.90
14079;DHT22;7115;50.150;8.568;2023-04-07T11:11:36;10.60;99.90
14079;DHT22;7115;50.150;8.568;2023-04-07T11:14:04;10.60;99.90
14079;DHT22;7115;50.150;8.568;2023-04-07T11:16:37;10.70;99.90
14079;DHT22;7115;50.150;8.568;2023-04-07T11:19:04;10.70;99.90
14079;DHT22;7115;50.150;8.568;2023-04-07T11:21:32;10.80;99.90
14079;DHT22;7115;50.150;8.568;2023-04-07T11:23:59;11.00;99.90
14079;DHT22;7115;50.150;8.568;2023-04-07T11:26:26;11.10;99.90
14079;DHT22;7115;50.150;8.568;2023-04-07T11:28:55;11.20;99.90
14079;DHT22;7115;50.150;8.568;2023-04-07T11:31:26;11.20;99.90
14079;DHT22;7115;50.150;8.568;2023-04-07T11:33:54;11.20;99.90
14079;DHT22;7115;50.150;8.568;2023-04-07T11:36:28;11.30;99.90
14079;DHT22;7115;50.150;8.568;2023-04-07T11:38:58;11.30;99.90
14079;DHT22;7115;50.150;8.568;2023-04-07T11:41:27;11.40;99.90
14079;DHT22;7115;50.150;8.568;2023-04-07T11:44:04;11.40;99.90
14079;DHT22;7115;50.150;8.568;2023-04-07T11:46:31;11.50;99.90
14079;DHT22;7115;50.150;8.568;2023-04-07T11:49:08;11.60;99.90
14079;DHT22;7115;50.150;8.568;2023-04-07T11:51:36;11.70;99.90
14079;DHT22;7115;50.150;8.568;2023-04-07T11:54:04;11.70;99.90
14079;DHT22;7115;50.150;8.568;2023-04-07T11:56:41;11.80;99.90
14079;DHT22;7115;50.150;8.568;2023-04-07T11:59:18;12.00;99.90
14079;DHT22;7115;50.150;8.568;2023-04-07T12:01:46;11.90;99.90
14079;DHT22;7115;50.150;8.568;2023-04-07T12:04:13;11.90;99.90
14079;DHT22;7115;50.150;8.568;2023-04-07T12:06:45;11.90;99.90
14079;DHT22;7115;50.150;8.568;2023-04-07T12:09:28;11.90;99.90
14079;DHT22;7115;50.150;8.568;2023-04-07T12:11:55;11.90;99.90
14079;DHT22;7115;50.150;8.568;2023-04-07T12:14:23;11.80;99.90
14079;DHT22;7115;50.150;8.568;2023-04-07T12:16:50;11.70;99.90
14079;DHT22;7115;50.150;8.568;2023-04-07T12:19:18;11.70;99.90
14079;DHT22;7115;50.150;8.568;2023-04-07T12:21:45;11.60;99.90
14079;DHT22;7115;50.150;8.568;2023-04-07T12:24:12;11.60;99.90
14079;DHT22;7115;50.150;8.568;2023-04-07T12:26:40;11.50;99.90
14079;DHT22;7115;50.150;8.568;2023-04-07T12:29:07;11.50;99.90
14079;DHT22;7115;50.150;8.568;2023-04-07T12:31:34;11.50;99.90
14079;DHT22;7115;50.150;8.568;2023-04-07T12:34:02;11.50;99.90
14079;DHT22;7115;50.150;8.568;2023-04-07T12:36:29;11.40;99.90
14079;DHT22;7115;50.150;8.568;2023-04-07T12:38:56;11.40;99.90
14079;DHT22;7115;50.150;8.568;2023-04-07T12:41:23;11.40;99.90
14079;DHT22;7115;50.150;8.568;2023-04-07T12:43:52;11.40;99.90
14079;DHT22;7115;50.150;8.568;2023-04-07T12:46:19;11.40;99.90
14079;DHT22;7115;50.150;8.568;2023-04-07T12:48:47;11.40;99.90
14079;DHT22;7115;50.150;8.568;2023-04-07T12:51:14;11.50;99.90
14079;DHT22;7115;50.150;8.568;2023-04-07T12:53:41;11.60;99.90
14079;DHT22;7115;50.150;8.568;2023-04-07T12:56:09;11.80;99.90
14079;DHT22;7115;50.150;8.568;2023-04-07T12:58:35;11.90;99.90
14079;DHT22;7115;50.150;8.568;2023-04-07T13:01:04;12.20;99.90
14079;DHT22;7115;50.150;8.568;2023-04-07T13:03:31;12.40;99.90
14079;DHT22;7115;50.150;8.568;2023-04-07T13:05:58;12.60;99.90
14079;DHT22;7115;50.150;8.568;2023-04-07T13:08:27;12.80;99.90
14079;DHT22;7115;50.150;8.568;2023-04-07T13:11:01;13.00;99.90
14079;DHT22;7115;50.150;8.568;2023-04-07T13:13:29;13.20;99.90
14079;DHT22;7115;50.150;8.568;2023-04-07T13:15:57;13.30;99.90
14079;DHT22;7115;50.150;8.568;2023-04-07T13:18:31;13.50;99.90
14079;DHT22;7115;50.150;8.568;2023-04-07T13:20:58;13.80;99.90
14079;DHT22;7115;50.150;8.568;2023-04-07T13:23:45;14.00;99.90
14079;DHT22;7115;50.150;8.568;2023-04-07T13:26:18;14.10;99.90
14079;DHT22;7115;50.150;8.568;2023-04-07T13:28:45;14.00;99.90
14079;DHT22;7115;50.150;8.568;2023-04-07T13:31:13;13.90;99.90
14079;DHT22;7115;50.150;8.568;2023-04-07T13:33:49;13.90;99.90
14079;DHT22;7115;50.150;8.568;2023-04-07T13:36:16;13.80;99.90
14079;DHT22;7115;50.150;8.568;2023-04-07T13:38:44;13.90;99.90
14079;DHT22;7115;50.150;8.568;2023-04-07T13:41:18;14.00;99.90
14079;DHT22;7115;50.150;8.568;2023-04-07T13:43:45;14.10;99.90
14079;DHT22;7115;50.150;8.568;2023-04-07T13:46:12;14.30;99.90
14079;DHT22;7115;50.150;8.568;2023-04-07T13:48:55;14.50;99.90
14079;DHT22;7115;50.150;8.568;2023-04-07T13:51:29;14.80;99.90
14079;DHT22;7115;50.150;8.568;2023-04-07T13:54:03;15.00;99.90
14079;DHT22;7115;50.150;8.568;2023-04-07T13:56:29;15.10;99.90
14079;DHT22;7115;50.150;8.568;2023-04-07T13:58:56;15.10;99.90
14079;DHT22;7115;50.150;8.568;2023-04-07T14:01:30;15.10;99.90
14079;DHT22;7115;50.150;8.568;2023-04-07T14:03:59;15.00;99.90
14079;DHT22;7115;50.150;8.568;2023-04-07T14:06:27;15.00;99.90
14079;DHT22;7115;50.150;8.568;2023-04-07T14:09:00;14.90;99.90
14079;DHT22;7115;50.150;8.568;2023-04-07T14:11:27;14.80;99.90
14079;DHT22;7115;50.150;8.568;2023-04-07T14:13:54;14.70;99.90
14079;DHT22;7115;50.150;8.568;2023-04-07T14:16:29;14.60;99.90
14079;DHT22;7115;50.150;8.568;2023-04-07T14:18:56;14.50;99.90
14079;DHT22;7115;50.150;8.568;2023-04-07T14:21:25;14.40;99.90
14079;DHT22;7115;50.150;8.568;2023-04-07T14:24:01;14.20;99.90
14079;DHT22;7115;50.150;8.568;2023-04-07T14:26:28;14.10;99.90
14079;DHT22;7115;50.150;8.568;2023-04-07T14:28:55;13.90;99.90
14079;DHT22;7115;50.150;8.568;2023-04-07T14:31:22;13.90;99.90
14079;DHT22;7115;50.150;8.568;2023-04-07T14:33:49;13.80;99.90
14079;DHT22;7115;50.150;8.568;2023-04-07T14:36:16;13.70;99.90
14079;DHT22;7115;50.150;8.568;2023-04-07T14:38:45;13.80;99.90
14079;DHT22;7115;50.150;8.568;2023-04-07T14:41:12;13.70;99.90
14079;DHT22;7115;50.150;8.568;2023-04-07T14:43:38;13.60;99.90
14079;DHT22;7115;50.150;8.568;2023-04-07T14:46:07;13.60;99.90
14079;DHT22;7115;50.150;8.568;2023-04-07T14:48:34;13.60;99.90
14079;DHT22;7115;50.150;8.568;2023-04-07T14:51:01;13.70;99.90
14079;DHT22;7115;50.150;8.568;2023-04-07T14:53:35;13.60;99.90
14079;DHT22;7115;50.150;8.568;2023-04-07T14:56:05;13.60;99.90
14079;DHT22;7115;50.150;8.568;2023-04-07T14:58:32;13.50;99.90
14079;DHT22;7115;50.150;8.568;2023-04-07T15:00:59;13.50;99.90
14079;DHT22;7115;50.150;8.568;2023-04-07T15:03:26;13.40;99.90
14079;DHT22;7115;50.150;8.568;2023-04-07T15:05:53;13.40;99.90
14079;DHT22;7115;50.150;8.568;2023-04-07T15:08:20;13.40;99.90
14079;DHT22;7115;50.150;8.568;2023-04-07T15:10:47;13.30;99.90
14079;DHT22;7115;50.150;8.568;2023-04-07T15:13:15;13.30;99.90
14079;DHT22;7115;50.150;8.568;2023-04-07T15:15:42;13.20;99.90
14079;DHT22;7115;50.150;8.568;2023-04-07T15:18:09;13.20;99.90
14079;DHT22;7115;50.150;8.568;2023-04-07T15:20:36;13.20;99.90
14079;DHT22;7115;50.150;8.568;2023-04-07T15:23:02;13.20;99.90
14079;DHT22;7115;50.150;8.568;2023-04-07T15:25:29;13.20;99.90
14079;DHT22;7115;50.150;8.568;2023-04-07T15:27:56;13.20;99.90
14079;DHT22;7115;50.150;8.568;2023-04-07T15:30:25;13.20;99.90
14079;DHT22;7115;50.150;8.568;2023-04-07T15:32:58;13.20;99.90
14079;DHT22;7115;50.150;8.568;2023-04-07T15:35:28;13.20;99.90
14079;DHT22;7115;50.150;8.568;2023-04-07T15:37:55;13.20;99.90
14079;DHT22;7115;50.150;8.568;2023-04-07T15:40:22;13.20;99.90
14079;DHT22;7115;50.150;8.568;2023-04-07T15:42:49;13.30;99.90
14079;DHT22;7115;50.150;8.568;2023-04-07T15:45:15;13.30;99.90
14079;DHT22;7115;50.150;8.568;2023-04-07T15:47:44;13.30;99.90
14079;DHT22;7115;50.150;8.568;2023-04-07T15:50:11;13.30;99.90
14079;DHT22;7115;50.150;8.568;2023-04-07T15:52:38;13.30;99.90
14079;DHT22;7115;50.150;8.568;2023-04-07T15:55:05;13.20;99.90
14079;DHT22;7115;50.150;8.568;2023-04-07T15:57:32;13.20;99.90
14079;DHT22;7115;50.150;8.568;2023-04-07T15:59:59;13.20;99.90
14079;DHT22;7115;50.150;8.568;2023-04-07T16:02:26;13.20;99.90
14079;DHT22;7115;50.150;8.568;2023-04-07T16:04:54;13.20;99.90